createdAt,value
2023-02-05T00:00:43.659Z,100282.95
2023-02-05T00:03:12.099Z,100281.58
2023-02-05T00:05:40.170Z,100282.77
2023-02-05T00:08:08.361Z,100286.13
2023-02-05T00:10:36.425Z,100289.09
2023-02-05T00:13:04.675Z,100295.10
2023-02-05T00:15:33.045Z,100295.10
2023-02-05T00:18:01.137Z,100290.38
2023-02-05T00:20:29.321Z,100292.70
2023-02-05T00:22:57.768Z,100293.72
2023-02-05T00:25:26.381Z,100292.13
2023-02-05T00:27:54.430Z,100287.17
2023-02-05T00:30:22.460Z,100285.56
2023-02-05T00:32:50.818Z,100286.60
2023-02-05T00:35:19.015Z,100289.45
2023-02-05T00:37:47.061Z,100288.29
2023-02-05T00:40:15.678Z,100291.54
2023-02-05T00:42:44.557Z,100292.75
2023-02-05T00:45:12.472Z,100295.15
2023-02-05T00:47:40.445Z,100296.09
2023-02-05T00:50:08.777Z,100298.70
2023-02-05T00:52:36.739Z,100294.83
2023-02-05T00:55:05.381Z,100295.83
2023-02-05T00:57:33.541Z,100292.33
2023-02-05T01:00:02.134Z,100288.85
2023-02-05T01:02:30.681Z,100291.44
2023-02-05T01:04:59.356Z,100289.19
2023-02-05T01:07:27.822Z,100290.88
2023-02-05T01:09:55.843Z,100289.96
2023-02-05T01:12:23.878Z,100286.86
2023-02-05T01:14:52.276Z,100286.70
2023-02-05T01:17:20.568Z,100283.98
2023-02-05T01:19:48.704Z,100280.98
2023-02-05T01:22:16.683Z,100286.59
2023-02-05T01:24:44.582Z,100286.54
2023-02-05T01:27:12.779Z,100289.46
2023-02-05T01:29:41.711Z,100290.58
2023-02-05T01:32:09.889Z,100292.39
2023-02-05T01:34:38.745Z,100293.60
2023-02-05T01:37:06.932Z,100293.84
2023-02-05T01:39:37.577Z,100292.78
2023-02-05T01:42:15.190Z,100295.50
2023-02-05T01:44:43.328Z,100297.38
2023-02-05T01:47:13.326Z,100296.86
2023-02-05T01:49:42.889Z,100297.67
2023-02-05T01:52:12.666Z,100296.30
2023-02-05T01:54:43.210Z,100302.49
2023-02-05T01:57:14.761Z,100300.48
2023-02-05T01:59:42.743Z,100304.54
2023-02-05T02:02:11.105Z,100301.85
2023-02-05T02:04:41.966Z,100304.79
2023-02-05T02:07:12.689Z,100300.64
2023-02-05T02:09:41.505Z,100297.90
2023-02-05T02:12:14.164Z,100294.70
2023-02-05T02:14:43.087Z,100298.78
2023-02-05T02:17:11.066Z,100294.55
2023-02-05T02:19:58.899Z,100290.06
2023-02-05T02:23:09.409Z,100285.91
2023-02-05T02:26:01.337Z,100285.51
2023-02-05T02:28:38.722Z,100286.22
2023-02-05T02:31:17.446Z,100287.56
2023-02-05T02:33:52.940Z,100285.84
2023-02-05T02:36:24.137Z,100286.52
2023-02-05T02:39:13.298Z,100284.56
2023-02-05T02:41:43.723Z,100288.04
2023-02-05T02:44:18.484Z,100293.44
2023-02-05T02:46:49.098Z,100294.11
2023-02-05T02:49:21.362Z,100293.41
2023-02-05T02:51:49.266Z,100289.93
2023-02-05T02:54:18.717Z,100292.11
2023-02-05T02:56:47.635Z,100296.58
2023-02-05T02:59:18.026Z,100299.29
2023-02-05T03:01:53.742Z,100301.34
2023-02-05T03:04:42.973Z,100302.82
2023-02-05T03:07:17.726Z,100306.50
2023-02-05T03:09:57.145Z,100307.33
2023-02-05T03:12:29.931Z,100310.14
2023-02-05T03:14:58.804Z,100308.06
2023-02-05T03:17:27.079Z,100310.77
2023-02-05T03:20:20.768Z,100312.98
2023-02-05T03:22:48.828Z,100307.80
2023-02-05T03:25:19.431Z,100304.52
2023-02-05T03:27:48.262Z,100300.04
2023-02-05T03:30:16.833Z,100306.33
2023-02-05T03:33:03.184Z,100309.05
2023-02-05T03:35:46.049Z,100309.25
2023-02-05T03:38:30.895Z,100308.71
2023-02-05T03:41:55.563Z,100312.45
2023-02-05T03:44:51.704Z,100314.31
2023-02-05T03:48:00.155Z,100319.58
2023-02-05T03:50:31.429Z,100318.89
2023-02-05T03:53:29.192Z,100318.30
2023-02-05T03:56:25.701Z,100320.22
2023-02-05T03:58:55.582Z,100323.35
2023-02-05T04:01:24.381Z,100325.89
2023-02-05T04:03:52.776Z,100325.88
2023-02-05T04:06:20.939Z,100329.08
2023-02-05T04:08:49.213Z,100329.14
2023-02-05T04:11:17.870Z,100329.87
2023-02-05T04:13:47.270Z,100329.08
2023-02-05T04:16:16.117Z,100329.22
2023-02-05T04:18:44.622Z,100330.45
2023-02-05T04:21:13.123Z,100334.55
2023-02-05T04:23:41.837Z,100339.76
2023-02-05T04:26:09.842Z,100340.39
2023-02-05T04:28:43.474Z,100337.09
2023-02-05T04:31:12.548Z,100341.52
2023-02-05T04:33:41.356Z,100345.68
2023-02-05T04:36:11.582Z,100344.25
2023-02-05T04:38:39.526Z,100342.50
2023-02-05T04:41:08.278Z,100343.54
2023-02-05T04:43:36.706Z,100343.93
2023-02-05T04:46:08.534Z,100340.56
2023-02-05T04:48:37.508Z,100342.63
2023-02-05T04:51:07.457Z,100341.00
2023-02-05T04:53:35.872Z,100339.38
2023-02-05T04:56:08.987Z,100346.40
2023-02-05T04:58:37.107Z,100344.95
2023-02-05T05:01:05.305Z,100346.42
2023-02-05T05:03:34.083Z,100350.65
2023-02-05T05:06:06.086Z,100346.08
2023-02-05T05:08:34.713Z,100346.14
2023-02-05T05:11:07.194Z,100346.30
2023-02-05T05:13:35.718Z,100348.08
2023-02-05T05:16:04.542Z,100355.44
2023-02-05T05:18:33.729Z,100351.56
2023-02-05T05:21:02.397Z,100357.89
2023-02-05T05:23:31.320Z,100361.48
2023-02-05T05:25:59.310Z,100365.65
2023-02-05T05:28:27.820Z,100364.84
2023-02-05T05:30:55.891Z,100369.35
2023-02-05T05:33:24.254Z,100370.81
2023-02-05T05:35:52.409Z,100372.13
2023-02-05T05:38:20.405Z,100369.48
2023-02-05T05:41:07.187Z,100368.25
2023-02-05T05:43:47.320Z,100372.20
2023-02-05T05:46:23.793Z,100377.17
2023-02-05T05:48:56.415Z,100374.92
2023-02-05T05:51:26.217Z,100377.23
2023-02-05T05:53:54.770Z,100377.88
2023-02-05T05:56:22.793Z,100382.11
2023-02-05T05:58:50.908Z,100385.84
2023-02-05T06:01:20.488Z,100384.46
2023-02-05T06:03:49.002Z,100385.88
2023-02-05T06:06:17.005Z,100386.90
2023-02-05T06:08:45.350Z,100390.21
2023-02-05T06:11:13.338Z,100392.88
2023-02-05T06:13:41.920Z,100393.48
2023-02-05T06:16:10.187Z,100396.58
2023-02-05T06:18:39.095Z,100399.06
2023-02-05T06:21:07.100Z,100406.80
2023-02-05T06:23:35.942Z,100412.58
2023-02-05T06:26:04.398Z,100408.73
2023-02-05T06:28:32.373Z,100411.34
2023-02-05T06:31:47.342Z,100415.71
2023-02-05T06:34:15.593Z,100418.17
2023-02-05T06:36:43.848Z,100422.80
2023-02-05T06:39:12.469Z,100423.39
2023-02-05T06:41:40.430Z,100426.14
2023-02-05T06:44:08.448Z,100424.89
2023-02-05T06:46:37.074Z,100429.27
2023-02-05T06:49:05.732Z,100428.13
2023-02-05T06:51:33.996Z,100434.29
2023-02-05T06:54:02.825Z,100437.83
2023-02-05T06:56:30.958Z,100442.94
2023-02-05T06:59:00.336Z,100445.57
2023-02-05T07:01:28.506Z,100446.48
2023-02-05T07:03:58.230Z,100450.93
2023-02-05T07:06:26.680Z,100446.54
2023-02-05T07:08:56.127Z,100445.27
2023-02-05T07:11:25.226Z,100446.56
2023-02-05T07:13:54.187Z,100444.54
2023-02-05T07:16:22.617Z,100448.36
2023-02-05T07:18:53.499Z,100453.65
2023-02-05T07:21:22.353Z,100460.16
2023-02-05T07:23:50.584Z,100459.66
2023-02-05T07:26:19.586Z,100462.08
2023-02-05T07:28:47.451Z,100464.23
2023-02-05T07:31:17.011Z,100464.05
2023-02-05T07:33:46.941Z,100458.66
2023-02-05T07:36:16.582Z,100458.56
2023-02-05T07:38:45.592Z,100457.05
2023-02-05T07:41:14.802Z,100457.38
2023-02-05T07:43:42.897Z,100459.48
2023-02-05T07:46:12.533Z,100464.64
2023-02-05T07:48:40.532Z,100462.88
2023-02-05T07:51:08.634Z,100463.15
2023-02-05T07:53:36.582Z,100459.23
2023-02-05T07:56:04.967Z,100465.72
2023-02-05T07:58:32.928Z,100470.01
2023-02-05T08:01:04.017Z,100467.78
2023-02-05T08:03:32.505Z,100469.14
2023-02-05T08:06:05.340Z,100472.22
2023-02-05T08:08:33.718Z,100474.86
2023-02-05T08:11:03.617Z,100477.66
2023-02-05T08:13:36.685Z,100478.95
2023-02-05T08:16:07.191Z,100477.19
2023-02-05T08:18:38.596Z,100481.00
2023-02-05T08:21:06.885Z,100487.67
2023-02-05T08:23:35.032Z,100490.27
2023-02-05T08:26:03.872Z,100494.28
2023-02-05T08:28:33.670Z,100494.00
2023-02-05T08:31:10.735Z,100501.12
2023-02-05T08:33:39.018Z,100503.64
2023-02-05T08:36:07.699Z,100504.27
2023-02-05T08:38:35.724Z,100502.95
2023-02-05T08:41:12.715Z,100507.78
2023-02-05T08:43:42.238Z,100509.70
2023-02-05T08:46:10.841Z,100512.44
2023-02-05T08:48:39.029Z,100511.63
2023-02-05T08:51:09.725Z,100517.88
2023-02-05T08:53:38.004Z,100522.33
2023-02-05T08:56:06.556Z,100523.91
2023-02-05T08:58:34.629Z,100528.41
2023-02-05T09:01:08.497Z,100522.42
2023-02-05T09:03:36.670Z,100525.13
2023-02-05T09:06:08.254Z,100523.75
2023-02-05T09:08:36.741Z,100529.03
2023-02-05T09:11:05.768Z,100527.91
2023-02-05T09:13:36.331Z,100525.70
2023-02-05T09:16:05.271Z,100526.55
2023-02-05T09:18:33.860Z,100526.21
2023-02-05T09:21:01.832Z,100527.94
2023-02-05T09:23:30.155Z,100524.78
2023-02-05T09:26:01.343Z,100522.08
2023-02-05T09:28:29.518Z,100522.96
2023-02-05T09:30:58.152Z,100527.18
2023-02-05T09:33:26.330Z,100525.06
2023-02-05T09:35:54.360Z,100518.25
2023-02-05T09:38:23.575Z,100514.90
2023-02-05T09:40:59.313Z,100511.30
2023-02-05T09:43:30.778Z,100516.63
2023-02-05T09:46:01.701Z,100515.23
2023-02-05T09:48:29.929Z,100515.48
2023-02-05T10:14:21.037Z,100542.10
2023-02-05T10:17:01.426Z,100551.42
2023-02-05T10:19:54.672Z,100551.08
2023-02-05T10:22:33.342Z,100551.58
2023-02-05T10:25:48.462Z,100557.30
2023-02-05T10:29:16.624Z,100556.52
2023-02-05T10:31:54.795Z,100552.45
2023-02-05T10:34:54.235Z,100549.95
2023-02-05T10:37:29.337Z,100555.61
2023-02-05T10:39:57.494Z,100555.70
2023-02-05T10:42:32.973Z,100556.98
2023-02-05T10:45:25.376Z,100560.91
2023-02-05T10:48:19.301Z,100561.20
2023-02-05T10:51:09.282Z,100561.27
2023-02-05T10:53:38.657Z,100564.91
2023-02-05T10:56:06.867Z,100566.71
2023-02-05T10:58:55.011Z,100564.23
2023-02-05T11:01:33.795Z,100561.59
2023-02-05T11:04:14.195Z,100567.63
2023-02-05T11:06:50.520Z,100572.09
2023-02-05T11:09:24.488Z,100573.94
2023-02-05T11:11:57.511Z,100575.39
2023-02-05T11:14:38.681Z,100574.61
2023-02-05T11:17:18.142Z,100575.13
2023-02-05T11:20:08.761Z,100575.52
2023-02-05T11:22:40.704Z,100576.70
2023-02-05T11:25:19.134Z,100573.60
2023-02-05T11:27:53.977Z,100575.34
2023-02-05T11:30:56.014Z,100578.01
2023-02-05T11:33:24.372Z,100576.20
2023-02-05T11:35:57.607Z,100576.29
2023-02-05T11:38:48.388Z,100582.73
2023-02-05T11:41:28.591Z,100582.55
2023-02-05T11:43:58.029Z,100582.56
2023-02-05T11:46:28.125Z,100582.52
2023-02-05T11:49:00.176Z,100588.66
2023-02-05T11:51:30.045Z,100590.39
2023-02-05T11:53:59.101Z,100591.09
2023-02-05T11:56:27.173Z,100594.08
2023-02-05T11:59:04.510Z,100598.55
2023-02-05T12:01:34.312Z,100597.34
2023-02-05T12:04:11.697Z,100601.69
2023-02-05T12:06:42.437Z,100605.20
2023-02-05T12:09:12.909Z,100603.66
2023-02-05T12:12:03.842Z,100600.77
2023-02-05T12:14:56.706Z,100607.28
2023-02-05T12:17:40.216Z,100609.75
2023-02-05T12:20:28.799Z,100613.09
2023-02-05T12:23:32.315Z,100615.02
2023-02-05T12:26:22.227Z,100613.85
2023-02-05T12:28:56.669Z,100615.53
2023-02-05T12:31:48.335Z,100617.85
2023-02-05T12:34:42.566Z,100620.42
2023-02-05T12:37:18.802Z,100613.96
2023-02-05T12:39:54.855Z,100615.14
2023-02-05T12:42:36.567Z,100621.52
2023-02-05T12:45:23.205Z,100622.56
2023-02-05T12:48:03.119Z,100620.45
2023-02-05T12:50:55.246Z,100623.95
2023-02-05T12:53:54.688Z,100624.75
2023-02-05T12:56:45.034Z,100633.78
2023-02-05T12:59:19.685Z,100631.61
2023-02-05T13:01:59.962Z,100633.83
2023-02-05T13:04:34.121Z,100630.70
2023-02-05T13:07:41.575Z,100628.22
2023-02-05T13:10:23.040Z,100628.02
2023-02-05T13:13:03.247Z,100632.03
2023-02-05T13:15:42.461Z,100631.84
2023-02-05T13:18:14.285Z,100634.80
2023-02-05T13:21:30.269Z,100634.66
2023-02-05T13:24:52.822Z,100631.48
2023-02-05T13:27:48.236Z,100634.15
2023-02-05T13:30:21.268Z,100638.85
2023-02-05T13:32:52.000Z,100642.94
2023-02-05T13:35:22.291Z,100641.34
2023-02-05T13:38:10.877Z,100651.01
2023-02-05T13:40:58.289Z,100644.36
2023-02-05T13:43:49.933Z,100648.13
2023-02-05T13:46:43.077Z,100659.08
2023-02-05T13:49:29.473Z,100657.30
2023-02-05T13:52:00.643Z,100662.59
2023-02-05T13:54:38.395Z,100662.86
2023-02-05T13:57:33.299Z,100663.81
2023-02-05T14:00:01.372Z,100666.19
2023-02-05T14:02:33.987Z,100671.35
2023-02-05T14:05:03.100Z,100674.86
2023-02-05T14:07:33.987Z,100672.73
2023-02-05T14:10:02.994Z,100679.77
2023-02-05T14:12:38.222Z,100676.95
2023-02-05T14:15:16.392Z,100681.49
2023-02-05T14:17:49.015Z,100683.06
2023-02-05T14:20:43.457Z,100684.25
2023-02-05T14:23:33.982Z,100682.16
2023-02-05T14:26:03.992Z,100690.39
2023-02-05T14:28:35.396Z,100694.29
2023-02-05T14:31:05.793Z,100692.31
2023-02-05T14:33:41.089Z,100695.27
2023-02-05T14:36:16.128Z,100699.42
2023-02-05T14:38:54.927Z,100701.70
2023-02-05T14:41:28.861Z,100697.70
2023-02-05T14:43:58.234Z,100699.45
2023-02-05T14:46:41.619Z,100698.02
2023-02-05T14:49:33.011Z,100699.84
2023-02-05T14:52:02.983Z,100702.33
2023-02-05T14:54:40.564Z,100707.52
2023-02-05T14:57:09.202Z,100707.48
2023-02-05T14:59:51.845Z,100705.70
2023-02-05T15:02:45.622Z,100708.55
2023-02-05T15:05:37.970Z,100714.45
2023-02-05T15:08:18.490Z,100722.13
2023-02-05T15:11:08.042Z,100725.67
2023-02-05T15:13:36.372Z,100726.50
2023-02-05T15:16:11.680Z,100728.67
2023-02-05T15:18:40.002Z,100729.66
2023-02-05T15:21:32.321Z,100732.16
2023-02-05T15:24:02.354Z,100734.14
2023-02-05T15:26:53.418Z,100733.40
2023-02-05T15:29:26.793Z,100738.88
2023-02-05T15:31:58.078Z,100740.18
2023-02-05T15:34:48.590Z,100745.41
2023-02-05T15:37:25.560Z,100747.31
2023-02-05T15:39:55.858Z,100749.51
2023-02-05T15:42:31.847Z,100749.45
2023-02-05T15:45:29.508Z,100753.60
2023-02-05T15:48:11.155Z,100755.86
2023-02-05T15:50:49.748Z,100757.40
2023-02-05T15:53:38.005Z,100756.61
2023-02-05T15:56:35.665Z,100765.52
2023-02-05T15:59:09.782Z,100764.30
2023-02-05T16:01:46.732Z,100770.92
2023-02-05T16:04:22.217Z,100772.82
2023-02-05T16:06:55.215Z,100779.08
2023-02-05T16:09:25.836Z,100781.58
2023-02-05T16:11:57.910Z,100784.13
2023-02-05T16:14:28.675Z,100782.48
2023-02-05T16:17:06.610Z,100788.25
2023-02-05T16:19:41.087Z,100791.34
2023-02-05T16:22:35.834Z,100796.34
2023-02-05T16:25:07.714Z,100803.20
2023-02-05T16:27:44.431Z,100804.48
2023-02-05T16:30:19.115Z,100805.02
2023-02-05T16:32:47.726Z,100808.64
2023-02-05T16:35:23.590Z,100816.62
2023-02-05T16:37:52.116Z,100815.55
2023-02-05T16:40:30.736Z,100813.48
2023-02-05T17:29:15.015Z,100865.30
2023-02-05T17:31:43.545Z,100868.90
2023-02-05T17:34:13.512Z,100871.55
2023-02-05T17:36:41.569Z,100874.82
2023-02-05T17:39:09.517Z,100879.44
2023-02-05T17:41:56.151Z,100884.71
2023-02-05T17:44:24.248Z,100886.15
2023-02-05T17:46:54.329Z,100887.84
2023-02-05T17:49:23.250Z,100890.77
2023-02-05T17:51:52.737Z,100888.40
2023-02-05T17:54:24.082Z,100887.59
2023-02-05T17:56:54.618Z,100886.94
2023-02-05T17:59:24.202Z,100884.40
2023-02-05T18:01:53.404Z,100889.80
2023-02-05T18:04:21.578Z,100891.59
2023-02-05T18:06:50.521Z,100898.03
2023-02-05T18:09:20.058Z,100898.39
2023-02-05T18:11:49.552Z,100902.88
2023-02-05T18:14:19.914Z,100908.04
2023-02-05T18:16:48.713Z,100916.98
2023-02-05T18:19:17.206Z,100920.29
2023-02-05T18:21:47.452Z,100923.27
2023-02-05T18:24:15.964Z,100923.70
2023-02-05T18:26:44.146Z,100924.02
2023-02-05T18:29:13.686Z,100922.55
2023-02-05T18:31:48.574Z,100923.91
2023-02-05T18:34:16.789Z,100921.98
2023-02-05T18:36:45.225Z,100924.80
2023-02-05T18:39:13.427Z,100927.36
2023-02-05T18:41:41.856Z,100924.95
2023-02-05T18:44:10.356Z,100925.73
2023-02-05T18:46:38.560Z,100924.95
2023-02-05T18:49:06.912Z,100921.52
2023-02-05T18:51:37.628Z,100923.65
2023-02-05T18:54:08.756Z,100928.34
2023-02-05T18:56:37.423Z,100930.27
2023-02-05T18:59:07.411Z,100935.02
2023-02-05T19:01:38.358Z,100938.95
2023-02-05T19:04:13.206Z,100948.33
2023-02-05T19:06:43.716Z,100949.71
2023-02-05T19:09:12.089Z,100953.20
2023-02-05T19:11:41.776Z,100955.94
2023-02-05T19:14:14.702Z,100960.47
2023-02-05T19:16:43.566Z,100967.35
2023-02-05T19:19:14.591Z,100970.75
2023-02-05T19:21:45.095Z,100973.64
2023-02-05T19:24:13.472Z,100975.79
2023-02-05T19:26:43.835Z,100976.73
2023-02-05T19:29:16.617Z,100982.11
2023-02-05T19:31:45.056Z,100983.84
2023-02-05T19:34:13.225Z,100985.80
2023-02-05T19:36:41.802Z,100987.75
2023-02-05T19:39:11.667Z,100991.30
2023-02-05T19:41:40.456Z,100989.66
2023-02-05T19:44:08.990Z,100989.59
2023-02-05T19:46:44.556Z,100996.81
2023-02-05T19:49:20.559Z,100998.98
2023-02-05T19:51:51.845Z,101003.16
2023-02-05T19:54:21.574Z,101006.80
2023-02-05T19:56:51.134Z,101015.07
2023-02-05T19:59:19.554Z,101013.52
2023-02-05T20:01:49.045Z,101011.45
2023-02-05T20:04:21.803Z,101014.44
2023-02-05T20:06:53.074Z,101015.55
2023-02-05T20:09:21.490Z,101018.13
2023-02-05T20:11:50.287Z,101018.26
2023-02-05T20:14:18.788Z,101022.50
2023-02-05T20:16:47.401Z,101025.86
2023-02-05T20:19:16.076Z,101024.25
2023-02-05T20:21:45.387Z,101019.59
2023-02-05T20:24:14.969Z,101020.80
2023-02-05T20:26:43.243Z,101024.23
2023-02-05T20:29:30.300Z,101025.33
2023-02-05T20:32:00.636Z,101029.27
2023-02-05T20:34:31.257Z,101024.41
2023-02-05T20:37:02.266Z,101031.10
2023-02-05T20:39:30.614Z,101034.27
2023-02-05T20:41:59.163Z,101037.34
2023-02-05T20:44:29.408Z,101040.94
2023-02-05T20:46:57.469Z,101045.23
2023-02-05T20:49:25.824Z,101049.17
2023-02-05T20:51:54.422Z,101047.52
2023-02-05T20:54:22.896Z,101052.66
2023-02-05T20:56:51.798Z,101056.77
2023-02-05T20:59:19.750Z,101059.27
2023-02-05T21:01:48.057Z,101061.27
2023-02-05T21:04:16.347Z,101061.17
2023-02-05T21:06:44.709Z,101065.09
2023-02-05T21:09:13.343Z,101070.52
2023-02-05T21:11:41.692Z,101075.11
2023-02-05T21:14:19.254Z,101080.46
2023-02-05T21:16:48.115Z,101086.28
2023-02-05T21:19:18.273Z,101092.90
2023-02-05T21:21:46.603Z,101087.43
2023-02-05T21:24:15.621Z,101090.83
2023-02-05T21:26:46.117Z,101093.61
2023-02-05T21:29:19.593Z,101092.83
2023-02-05T21:31:49.861Z,101094.12
2023-02-05T21:34:21.884Z,101095.98
2023-02-05T21:36:51.022Z,101105.64
2023-02-05T21:39:20.655Z,101103.83
2023-02-05T21:41:50.989Z,101111.87
2023-02-05T21:44:19.025Z,101110.48
2023-02-05T21:46:47.723Z,101109.64
2023-02-05T21:49:15.746Z,101117.98
2023-02-05T21:51:43.818Z,101112.95
2023-02-05T21:54:11.858Z,101117.11
2023-02-05T21:56:41.189Z,101119.46
2023-02-05T21:59:11.026Z,101122.73
2023-02-05T22:01:39.454Z,101122.02
2023-02-05T22:04:11.570Z,101128.86
2023-02-05T22:06:39.644Z,101122.95
2023-02-05T22:09:12.752Z,101121.08
2023-02-05T22:11:40.884Z,101123.00
2023-02-05T22:14:09.379Z,101121.75
2023-02-05T22:16:38.112Z,101124.84
2023-02-05T22:19:06.818Z,101128.23
2023-02-05T22:21:38.166Z,101130.00
2023-02-05T22:24:06.292Z,101126.29
2023-02-05T22:26:38.514Z,101130.86
2023-02-05T22:29:07.590Z,101132.91
2023-02-05T22:31:36.423Z,101134.67
2023-02-05T22:34:04.552Z,101139.36
2023-02-05T22:36:34.053Z,101142.90
2023-02-05T22:39:02.311Z,101144.12
2023-02-05T22:41:32.838Z,101144.39
2023-02-05T22:44:01.425Z,101147.56
2023-02-05T22:46:31.554Z,101151.88
2023-02-05T22:49:00.560Z,101151.80
2023-02-05T22:51:39.499Z,101156.30
2023-02-05T22:54:08.578Z,101154.03
2023-02-05T22:56:38.163Z,101154.67
2023-02-05T22:59:06.683Z,101152.73
2023-02-05T23:01:36.675Z,101149.85
2023-02-05T23:04:05.898Z,101147.83
2023-02-05T23:06:36.023Z,101151.09
2023-02-05T23:09:06.908Z,101157.17
2023-02-05T23:11:37.158Z,101160.93
2023-02-05T23:14:05.945Z,101161.94
2023-02-05T23:16:36.025Z,101166.54
2023-02-05T23:19:07.513Z,101172.85
2023-02-05T23:21:36.499Z,101175.66
2023-02-05T23:24:05.371Z,101179.66
2023-02-05T23:26:37.214Z,101185.21
2023-02-05T23:29:05.764Z,101188.05
2023-02-05T23:31:35.356Z,101185.13
2023-02-05T23:34:03.425Z,101186.29
2023-02-05T23:36:31.952Z,101190.09
2023-02-05T23:39:00.079Z,101189.48
2023-02-05T23:41:37.434Z,101190.50
2023-02-05T23:44:18.327Z,101187.06
2023-02-05T23:46:47.914Z,101193.83
2023-02-05T23:49:16.586Z,101194.44
2023-02-05T23:51:45.178Z,101193.19
2023-02-05T23:54:13.543Z,101195.34
2023-02-05T23:56:42.024Z,101190.52
2023-02-05T23:59:12.111Z,101191.80
